Time;durP1;ratioP1;P1;durP2;ratioP2;P2;SDS_P1;SDS_P2;PMS_P1;PMS_P2;Temp;Humidity;BMP_temperature;BMP_pressure;BME280_temperature;BME280_humidity;BME280_pressure;Samples;Min_cycle;Max_cycle;Signal;HPM_P1;HPM_P2
2021/09/16 00:11:25;;;;;;;2.83;2.57;;;25.00;62.60;;;;;;6274718;22;20397;-87
2021/09/16 00:13:56;;;;;;;2.20;2.00;;;25.00;62.40;;;;;;6296388;22;20395;-87
2021/09/16 00:19:52;;;;;;;;;;;;;;;;;;;;;
2021/09/16 00:22:59;;;;;;;3.57;3.27;;;25.00;62.30;;;;;;6293546;22;20451;-88
2021/09/16 00:32:41;;;;;;;3.13;2.50;;;25.00;62.50;;;;;;6140791;23;20362;-89
2021/09/16 00:35:23;;;;;;;;;;;;;;;;;;;;;
2021/09/16 00:45:31;;;;;;;3.13;2.20;;;24.90;62.50;;;;;;6142395;23;20425;-89
2021/09/16 00:48:49;;;;;;;;;;;;;;;;;;;;;
2021/09/16 00:51:49;;;;;;;2.43;2.13;;;24.90;62.70;;;;;;6140054;23;20403;-87
2021/09/16 00:54:34;;;;;;;2.30;2.10;;;24.90;62.70;;;;;;6110979;23;20402;-87
2021/09/16 01:03:51;;;;;;;;;;;;;;;;;;;;;
2021/09/16 01:06:51;;;;;;;;;;;;;;;;;;;;;
2021/09/16 01:23:01;;;;;;;3.20;2.93;;;24.90;62.60;;;;;;5997567;24;20485;-87
2021/09/16 01:32:06;;;;;;;3.00;2.43;;;24.90;62.50;;;;;;6043454;23;20367;-86
2021/09/16 01:34:32;;;;;;;2.90;2.50;;;24.90;62.50;;;;;;6054052;23;20459;-86
2021/09/16 01:37:04;;;;;;;2.70;2.50;;;24.90;62.50;;;;;;6034375;23;20865;-86
2021/09/16 01:39:31;;;;;;;3.87;3.00;;;24.90;62.40;;;;;;6089401;23;20382;-87
2021/09/16 01:41:57;;;;;;;3.57;2.80;;;24.90;62.40;;;;;;6112499;23;20487;-87
2021/09/16 01:44:26;;;;;;;3.77;2.57;;;24.90;62.50;;;;;;6088537;23;20406;-87
2021/09/16 01:47:50;;;;;;;2.97;2.67;;;25.00;62.40;;;;;;6088760;23;20385;-87
2021/09/16 01:54:47;;;;;;;;;;;;;;;;;;;;;
2021/09/16 02:00:49;;;;;;;4.17;2.90;;;25.00;62.40;;;;;;6230105;23;20353;-87
2021/09/16 02:03:18;;;;;;;2.50;2.30;;;24.90;62.40;;;;;;6205865;23;20377;-87
2021/09/16 02:05:44;;;;;;;2.30;2.10;;;24.90;62.30;;;;;;6205225;23;20382;-87
2021/09/16 02:08:13;;;;;;;3.63;3.33;;;24.90;62.20;;;;;;6230050;23;20374;-86
2021/09/16 02:10:43;;;;;;;2.83;2.43;;;25.00;62.20;;;;;;6205398;23;20393;-87
2021/09/16 02:13:29;;;;;;;2.67;2.47;;;25.00;62.10;;;;;;6230836;23;20382;-87
2021/09/16 02:16:09;;;;;;;2.90;2.60;;;25.00;62.10;;;;;;6229832;23;20374;-86
2021/09/16 02:18:39;;;;;;;3.50;2.67;;;25.00;62.10;;;;;;6205639;23;20370;-86
2021/09/16 02:21:08;;;;;;;3.07;2.80;;;25.00;62.10;;;;;;6207555;23;20429;-86
2021/09/16 02:23:44;;;;;;;3.93;2.80;;;25.00;62.20;;;;;;6207122;23;20378;-88
2021/09/16 02:26:16;;;;;;;3.63;3.10;;;25.00;62.30;;;;;;6263007;22;20368;-86
2021/09/16 02:28:45;;;;;;;2.90;2.70;;;25.00;62.20;;;;;;6295074;22;20345;-87
2021/09/16 02:31:16;;;;;;;3.40;2.97;;;25.00;62.20;;;;;;6269180;22;20384;-87
2021/09/16 02:33:53;;;;;;;4.67;2.50;;;25.00;62.20;;;;;;6242597;22;20723;-87
2021/09/16 02:36:37;;;;;;;5.47;2.90;;;25.00;62.10;;;;;;6267991;22;20380;-88
2021/09/16 02:39:05;;;;;;;3.20;2.90;;;25.00;62.20;;;;;;6266522;22;20384;-87
2021/09/16 02:41:37;;;;;;;2.93;2.60;;;25.00;62.20;;;;;;6267200;22;20458;-88
2021/09/16 02:44:09;;;;;;;2.50;2.30;;;25.00;62.10;;;;;;6266697;22;20383;-87
2021/09/16 02:46:37;;;;;;;2.73;2.53;;;25.00;62.00;;;;;;6267242;22;20403;-87
2021/09/16 02:49:24;;;;;;;2.73;2.43;;;25.00;61.90;;;;;;6264999;22;20376;-87
2021/09/16 02:51:53;;;;;;;3.07;2.67;;;25.00;61.80;;;;;;6266901;22;20422;-87
2021/09/16 02:54:28;;;;;;;3.10;2.17;;;25.00;61.80;;;;;;6266262;22;20388;-87
2021/09/16 02:56:55;;;;;;;2.17;1.97;;;25.00;61.80;;;;;;6265681;22;20380;-87
2021/09/16 02:59:27;;;;;;;2.73;2.40;;;25.00;61.70;;;;;;6293190;22;20377;-87
2021/09/16 03:01:56;;;;;;;2.40;2.00;;;25.00;61.70;;;;;;6240534;22;20420;-87
2021/09/16 03:04:27;;;;;;;2.67;2.43;;;25.00;61.70;;;;;;6291480;22;20368;-87
2021/09/16 03:06:56;;;;;;;2.87;2.57;;;25.10;61.70;;;;;;6265271;22;20385;-87
2021/09/16 03:09:32;;;;;;;2.93;2.43;;;25.10;61.70;;;;;;6291408;22;20926;-87
2021/09/16 03:11:58;;;;;;;3.33;2.53;;;25.10;61.60;;;;;;6291633;22;20395;-87
2021/09/16 03:14:29;;;;;;;2.30;2.10;;;25.10;61.60;;;;;;6264833;22;20380;-87
2021/09/16 03:16:58;;;;;;;2.53;2.10;;;25.10;61.60;;;;;;6264185;22;20387;-88
2021/09/16 03:19:24;;;;;;;2.60;2.40;;;25.10;61.70;;;;;;6264676;22;20387;-87
2021/09/16 03:21:52;;;;;;;2.73;2.40;;;25.10;61.60;;;;;;6264895;22;20518;-87
2021/09/16 03:24:26;;;;;;;2.70;2.50;;;25.10;61.70;;;;;;6264914;22;20407;-87
2021/09/16 03:26:53;;;;;;;3.00;2.53;;;25.10;62.40;;;;;;6265112;22;20369;-87
2021/09/16 03:29:22;;;;;;;2.63;2.43;;;25.10;61.60;;;;;;6291425;22;20369;-87
2021/09/16 03:31:49;;;;;;;3.40;2.60;;;25.10;61.70;;;;;;6264676;22;20862;-87
2021/09/16 03:34:15;;;;;;;2.30;2.10;;;25.10;61.60;;;;;;6292065;22;20372;-88
2021/09/16 03:36:43;;;;;;;2.63;2.43;;;25.10;61.60;;;;;;6265407;22;20419;-87
2021/09/16 03:39:15;;;;;;;2.53;2.33;;;25.10;62.40;;;;;;6264116;22;20399;-87
2021/09/16 03:41:41;;;;;;;3.37;2.87;;;25.10;61.60;;;;;;6291750;22;20440;-87
2021/09/16 03:44:07;;;;;;;2.33;2.13;;;25.10;61.50;;;;;;6264359;22;20373;-87
2021/09/16 03:46:41;;;;;;;2.80;2.40;;;25.10;61.50;;;;;;6265114;22;20157;-87
2021/09/16 03:49:15;;;;;;;2.50;2.30;;;25.10;61.50;;;;;;6265225;22;20373;-87
2021/09/16 03:51:45;;;;;;;3.33;2.77;;;25.10;61.80;;;;;;6293359;22;20659;-87
2021/09/16 03:54:18;;;;;;;3.30;2.60;;;25.10;61.90;;;;;;6267679;22;20389;-87
2021/09/16 03:56:49;;;;;;;2.80;2.47;;;25.10;62.10;;;;;;6294092;22;20371;-87
2021/09/16 03:59:21;;;;;;;2.70;2.30;;;25.00;61.80;;;;;;6266925;22;20412;-87
2021/09/16 04:02:33;;;;;;;;;;;;;;;;;;;;;
2021/09/16 04:05:14;;;;;;;2.93;2.63;;;25.10;61.80;;;;;;6142287;23;20396;-86
2021/09/16 04:11:49;;;;;;;4.50;2.90;;;25.00;62.10;;;;;;6142132;23;20387;-85
2021/09/16 04:21:45;;;;;;;2.83;2.63;;;25.00;62.20;;;;;;6140889;23;20432;-87
2021/09/16 04:24:51;;;;;;;2.57;2.37;;;25.00;62.20;;;;;;6028315;23;20404;-88
2021/09/16 04:31:16;;;;;;;;;;;;;;;;;;;;;
2021/09/16 04:34:19;;;;;;;3.00;2.70;;;24.90;62.60;;;;;;6053285;23;20383;-87
2021/09/16 04:36:53;;;;;;;3.93;2.87;;;24.90;62.40;;;;;;6029101;23;20379;-88
2021/09/16 04:39:21;;;;;;;3.13;2.70;;;24.90;62.50;;;;;;6031114;23;20424;-87
2021/09/16 04:41:48;;;;;;;2.83;2.53;;;24.90;62.40;;;;;;6087168;23;20442;-87
2021/09/16 04:44:20;;;;;;;3.33;3.03;;;25.00;62.40;;;;;;6146461;23;20384;-86
2021/09/16 04:47:42;;;;;;;2.70;2.50;;;25.00;62.30;;;;;;6170120;23;20372;-87
2021/09/16 04:56:39;;;;;;;3.13;2.83;;;24.90;62.20;;;;;;6011166;23;20387;-87
2021/09/16 05:02:03;;;;;;;2.57;2.37;;;25.00;62.10;;;;;;6040452;23;20427;-86
2021/09/16 05:05:32;;;;;;;3.00;2.57;;;25.00;62.00;;;;;;6054949;23;20396;-86
2021/09/16 05:11:21;;;;;;;2.70;2.50;;;25.00;61.90;;;;;;6028507;23;20421;-86
2021/09/16 05:13:49;;;;;;;3.93;2.93;;;25.00;62.00;;;;;;6027390;23;20484;-86
2021/09/16 05:22:58;;;;;;;3.80;3.43;;;25.00;62.20;;;;;;6055681;23;20431;-86
2021/09/16 05:25:26;;;;;;;3.50;3.13;;;24.90;62.30;;;;;;6033675;23;20499;-86
2021/09/16 05:28:02;;;;;;;3.47;3.17;;;24.90;62.40;;;;;;6109991;23;20742;-86
2021/09/16 05:30:34;;;;;;;3.37;3.07;;;24.90;62.40;;;;;;6147355;23;20426;-87
2021/09/16 05:33:28;;;;;;;3.63;3.33;;;24.90;62.50;;;;;;6148490;23;20391;-87
2021/09/16 05:36:06;;;;;;;3.97;2.87;;;25.00;62.30;;;;;;6150190;23;20388;-86
2021/09/16 05:38:42;;;;;;;3.63;3.33;;;24.90;62.60;;;;;;6147427;23;20469;-87
2021/09/16 05:41:08;;;;;;;3.20;2.90;;;24.90;62.50;;;;;;6145947;23;20491;-87
2021/09/16 05:43:41;;;;;;;3.30;3.00;;;24.90;62.80;;;;;;6178985;22;20369;-86
2021/09/16 05:46:24;;;;;;;3.43;3.10;;;24.90;62.60;;;;;;6268134;22;20380;-86
2021/09/16 05:48:50;;;;;;;4.60;3.60;;;24.90;62.60;;;;;;6245667;22;20387;-87
2021/09/16 05:51:20;;;;;;;5.00;3.87;;;24.90;62.90;;;;;;6268811;22;20389;-87
2021/09/16 05:53:57;;;;;;;7.13;3.33;;;24.90;62.90;;;;;;6269209;22;20381;-86
2021/09/16 05:56:48;;;;;;;;;;;;;;;;;;;;;
2021/09/16 05:59:18;;;;;;;4.63;3.70;;;24.90;63.00;;;;;;6294592;22;20365;-87
2021/09/16 06:01:50;;;;;;;4.83;3.77;;;24.90;63.30;;;;;;6267662;22;20459;-86
2021/09/16 06:04:17;;;;;;;3.83;2.90;;;24.90;63.10;;;;;;6269000;22;20384;-87
2021/09/16 06:07:09;;;;;;;3.80;3.13;;;24.80;63.10;;;;;;6267383;22;20380;-88
2021/09/16 06:10:35;;;;;;;3.93;3.60;;;24.90;63.00;;;;;;6268512;22;20380;-90
2021/09/16 06:30:30;;;;;;;3.77;3.47;;;24.90;62.60;;;;;;6109116;23;20413;-89
2021/09/16 06:40:04;;;;;;;3.80;3.47;;;25.00;62.60;;;;;;5964388;24;20366;-86
2021/09/16 06:42:55;;;;;;;3.10;2.80;;;25.00;62.70;;;;;;5865882;24;20781;-87
2021/09/16 06:45:55;;;;;;;;;;;;;;;;;;;;;
2021/09/16 06:48:42;;;;;;;3.00;2.80;;;25.00;62.50;;;;;;5904658;24;20386;-87
2021/09/16 06:51:30;;;;;;;3.63;3.33;;;25.00;62.30;;;;;;5971015;23;20406;-87
2021/09/16 07:14:56;;;;;;;2.63;2.37;;;25.10;62.40;;;;;;5883800;24;20454;-89
2021/09/16 07:17:49;;;;;;;3.20;2.50;;;25.10;62.40;;;;;;5910678;24;20490;-89
2021/09/16 07:20:21;;;;;;;2.67;2.47;;;25.10;62.50;;;;;;5907798;24;20400;-89
2021/09/16 07:22:47;;;;;;;2.77;2.40;;;25.10;62.50;;;;;;5885068;24;20503;-87
2021/09/16 07:25:44;;;;;;;;;;;;;;;;;;;;;
2021/09/16 07:28:10;;;;;;;5.03;2.60;;;25.20;62.30;;;;;;5889312;24;20595;-88
2021/09/16 07:30:39;;;;;;;3.00;2.70;;;25.20;62.30;;;;;;5929762;24;20459;-88
2021/09/16 07:33:05;;;;;;;3.13;2.63;;;25.20;62.40;;;;;;5979044;23;20797;-88
2021/09/16 07:35:37;;;;;;;2.27;2.07;;;25.30;62.40;;;;;;6279869;22;20372;-89
2021/09/16 07:38:18;;;;;;;2.93;2.73;;;25.30;62.30;;;;;;6296257;22;20432;-87
2021/09/16 07:48:11;;;;;;;2.70;2.50;;;25.30;62.10;;;;;;6142909;23;20409;-89
2021/09/16 07:50:54;;;;;;;2.73;2.53;;;25.20;62.00;;;;;;6116322;23;20404;-89
2021/09/16 07:53:55;;;;;;;;;;;;;;;;;;;;;
2021/09/16 07:56:43;;;;;;;2.93;2.63;;;25.20;62.00;;;;;;6141434;23;20430;-89
2021/09/16 08:02:42;;;;;;;2.47;2.20;;;25.20;61.90;;;;;;6112138;23;20425;-89
2021/09/16 08:05:20;;;;;;;3.77;3.03;;;25.20;62.00;;;;;;6088394;23;20421;-89
2021/09/16 08:07:55;;;;;;;2.70;2.50;;;25.20;62.00;;;;;;6112190;23;20369;-89
2021/09/16 08:13:53;;;;;;;2.23;2.03;;;25.20;61.90;;;;;;6101662;23;20377;-89
2021/09/16 08:17:19;;;;;;;2.60;2.40;;;25.20;61.80;;;;;;6084725;23;20515;-90
2021/09/16 08:45:03;;;;;;;2.50;2.30;;;25.10;61.90;;;;;;6023233;23;20388;-90
2021/09/16 09:18:42;;;;;;;2.30;1.80;;;25.10;62.00;;;;;;5911238;24;20394;-88
2021/09/16 09:44:16;;;;;;;2.10;1.90;;;25.10;62.00;;;;;;5937694;24;20395;-88
2021/09/16 09:47:14;;;;;;;3.93;2.30;;;25.10;61.90;;;;;;5941579;24;20375;-89
2021/09/16 09:56:31;;;;;;;2.63;2.43;;;25.10;61.80;;;;;;5913651;24;20381;-87
2021/09/16 10:46:59;;;;;;;;;;;;;;;;;;;;;
2021/09/16 15:44:42;;;;;;;3.73;2.77;;;25.10;61.40;;;;;;5975740;23;20405;-89
2021/09/16 15:47:52;;;;;;;3.40;3.10;;;25.20;61.50;;;;;;6022828;23;20416;-88
2021/09/16 16:14:50;;;;;;;3.23;2.93;;;25.00;61.70;;;;;;5861816;24;20388;-88
2021/09/16 16:28:44;;;;;;;;;;;;;;;;;;;;;
2021/09/16 16:48:43;;;;;;;4.50;3.10;;;24.90;60.80;;;;;;5779107;24;20466;-86
2021/09/16 16:55:16;;;;;;;3.60;3.30;;;24.90;60.50;;;;;;5807494;24;20395;-85
2021/09/16 17:01:49;;;;;;;;;;;;;;;;;;;;;
2021/09/16 17:04:51;;;;;;;;;;;;;;;;;;;;;
2021/09/16 17:07:41;;;;;;;3.80;3.50;;;24.80;60.00;;;;;;5922148;24;20390;-85
2021/09/16 17:10:10;;;;;;;3.70;3.40;;;24.90;59.90;;;;;;5937415;24;20454;-84
2021/09/16 17:22:22;;;;;;;3.93;3.57;;;24.80;59.70;;;;;;5975643;23;20436;-86
2021/09/16 18:03:31;;;;;;;4.00;3.53;;;24.60;58.30;;;;;;5976328;24;20487;-84
